Time;durP1;ratioP1;P1;durP2;ratioP2;P2;SDS_P1;SDS_P2;PMS_P1;PMS_P2;Temp;Humidity;BMP_temperature;BMP_pressure;BME280_temperature;BME280_humidity;BME280_pressure;Samples;Min_cycle;Max_cycle;Signal;HPM_P1;HPM_P2
2022/10/23 00:00:23;;;;;;;0.57;0.50;;;;;;;-144.22;100.00;60274.75;6212379;28;20232;-42
2022/10/23 00:03:26;;;;;;;1.30;0.60;;;;;;;-144.22;100.00;60274.75;6229417;28;20234;-41
2022/10/23 00:06:30;;;;;;;1.17;0.70;;;;;;;-144.22;100.00;60274.75;6222744;28;20235;-41
2022/10/23 00:09:32;;;;;;;1.03;0.60;;;;;;;-144.22;100.00;60274.75;6226301;28;20216;-42
2022/10/23 00:12:35;;;;;;;2.63;0.50;;;;;;;-144.22;100.00;60274.75;6228402;28;20682;-41
2022/10/23 00:15:37;;;;;;;1.80;0.50;;;;;;;-144.22;100.00;60274.75;6223698;28;20733;-41
2022/10/23 00:18:40;;;;;;;2.20;0.70;;;;;;;-144.22;100.00;60274.75;6215912;28;20228;-41
2022/10/23 00:21:42;;;;;;;0.80;0.60;;;;;;;-144.22;100.00;60274.75;6224491;28;20344;-41
2022/10/23 00:24:44;;;;;;;0.60;0.60;;;;;;;-144.22;100.00;60274.75;6229962;28;20311;-41
2022/10/23 00:27:46;;;;;;;0.87;0.70;;;;;;;-144.22;100.00;60274.75;6224055;28;20746;-43
2022/10/23 00:30:48;;;;;;;1.73;0.60;;;;;;;-144.22;100.00;60274.75;6231161;28;20315;-41
2022/10/23 00:33:51;;;;;;;1.67;0.63;;;;;;;-144.22;100.00;60274.75;6230906;28;20227;-41
2022/10/23 00:36:53;;;;;;;2.30;0.80;;;;;;;-144.22;100.00;60274.75;6226703;28;20227;-41
2022/10/23 00:39:55;;;;;;;2.37;0.90;;;;;;;-144.22;100.00;60274.75;6225446;28;20223;-42
2022/10/23 00:42:57;;;;;;;2.33;1.00;;;;;;;-144.22;100.00;60274.75;6223711;28;20288;-41
2022/10/23 00:45:59;;;;;;;2.63;0.60;;;;;;;-144.22;100.00;60274.75;6226297;28;20229;-41
2022/10/23 00:49:03;;;;;;;1.67;0.57;;;;;;;-144.22;100.00;60274.75;6219578;28;20228;-41
2022/10/23 00:52:08;;;;;;;2.70;0.60;;;;;;;-144.22;100.00;60274.75;6221265;28;20256;-43
2022/10/23 00:55:12;;;;;;;1.60;1.00;;;;;;;-144.22;100.00;60274.75;6221799;28;20231;-41
2022/10/23 00:58:16;;;;;;;2.00;0.70;;;;;;;-144.22;100.00;60274.75;6208146;28;20235;-41
2022/10/23 01:01:22;;;;;;;1.17;0.60;;;;;;;-144.22;100.00;60274.75;6220783;28;20709;-42
2022/10/23 01:04:26;;;;;;;1.33;0.50;;;;;;;-144.22;100.00;60274.75;6215230;28;20233;-41
2022/10/23 01:07:37;;;;;;;2.30;0.87;;;;;;;-144.22;100.00;60274.75;6225912;28;20608;-41
2022/10/23 01:10:51;;;;;;;1.57;0.80;;;;;;;-144.22;100.00;60274.75;6213599;28;20269;-42
2022/10/23 01:14:05;;;;;;;1.63;0.53;;;;;;;-144.22;100.00;60274.75;6228707;28;20235;-41
2022/10/23 01:17:28;;;;;;;2.80;0.80;;;;;;;-144.22;100.00;60274.75;6221848;28;20224;-42
2022/10/23 01:20:35;;;;;;;3.53;0.80;;;;;;;-144.22;100.00;60274.75;6225046;28;20224;-41
2022/10/23 01:23:54;;;;;;;1.97;0.90;;;;;;;-144.22;100.00;60274.75;6221996;28;20315;-41
2022/10/23 01:27:14;;;;;;;0.60;0.60;;;;;;;-144.22;100.00;60274.75;6224103;28;20319;-41
2022/10/23 01:30:16;;;;;;;0.70;0.70;;;;;;;-144.22;100.00;60274.75;6214085;28;20220;-41
2022/10/23 01:33:28;;;;;;;1.43;0.50;;;;;;;-144.22;100.00;60274.75;6220809;28;20714;-41
2022/10/23 01:36:32;;;;;;;0.70;0.57;;;;;;;-144.22;100.00;60274.75;6216595;28;20251;-41
2022/10/23 01:39:39;;;;;;;0.70;0.50;;;;;;;-144.22;100.00;60274.75;6221466;28;20243;-41
2022/10/23 01:42:48;;;;;;;1.37;0.67;;;;;;;-144.22;100.00;60274.75;6219594;28;20235;-41
2022/10/23 01:45:59;;;;;;;0.50;0.50;;;;;;;-144.22;100.00;60274.75;6224317;28;20266;-42
2022/10/23 01:49:02;;;;;;;0.90;0.40;;;;;;;-144.22;100.00;60274.75;6222362;28;20605;-41
2022/10/23 01:52:07;;;;;;;0.60;0.60;;;;;;;-144.22;100.00;60274.75;6219189;28;20589;-41
2022/10/23 01:55:12;;;;;;;0.87;0.43;;;;;;;-144.22;100.00;60274.75;6216967;28;20233;-41
2022/10/23 01:58:17;;;;;;;0.50;0.50;;;;;;;-144.22;100.00;60274.75;6217653;28;20235;-42
2022/10/23 02:01:24;;;;;;;1.90;0.77;;;;;;;-144.22;100.00;60274.75;6222633;28;20240;-42
2022/10/23 02:04:33;;;;;;;2.87;0.60;;;;;;;-144.22;100.00;60274.75;6220975;28;20255;-41
2022/10/23 02:07:35;;;;;;;1.13;0.70;;;;;;;-144.22;100.00;60274.75;6224204;28;20274;-41
2022/10/23 02:10:54;;;;;;;1.80;0.60;;;;;;;-144.22;100.00;60274.75;6217915;28;20241;-41
2022/10/23 02:14:19;;;;;;;2.00;0.60;;;;;;;-144.22;100.00;60274.75;6226235;28;20424;-41
2022/10/23 02:17:55;;;;;;;0.70;0.43;;;;;;;-144.22;100.00;60274.75;6219578;28;20224;-41
2022/10/23 02:21:12;;;;;;;0.57;0.57;;;;;;;-144.22;100.00;60274.75;6224703;28;20314;-41
2022/10/23 02:24:19;;;;;;;0.87;0.70;;;;;;;-144.22;100.00;60274.75;6222055;28;20212;-41
2022/10/23 02:27:34;;;;;;;0.70;0.70;;;;;;;-144.22;100.00;60274.75;6226541;28;20719;-41
2022/10/23 02:30:40;;;;;;;1.07;0.50;;;;;;;-144.22;100.00;60274.75;6235505;28;20357;-41
2022/10/23 02:33:46;;;;;;;0.60;0.60;;;;;;;-144.22;100.00;60274.75;6238367;28;20228;-44
2022/10/23 02:36:48;;;;;;;1.50;0.50;;;;;;;-144.22;100.00;60274.75;6213862;28;20232;-39
2022/10/23 02:39:53;;;;;;;1.97;0.60;;;;;;;-144.22;100.00;60274.75;6220957;28;20231;-39
2022/10/23 02:43:16;;;;;;;3.70;0.73;;;;;;;-144.22;100.00;60274.75;6220224;28;20358;-39
2022/10/23 02:46:41;;;;;;;0.40;0.40;;;;;;;-144.22;100.00;60274.75;6221534;28;20235;-39
2022/10/23 02:49:56;;;;;;;0.70;0.60;;;;;;;-144.22;100.00;60274.75;6231158;28;20367;-39
2022/10/23 02:53:08;;;;;;;0.83;0.50;;;;;;;-144.22;100.00;60274.75;6223237;28;20238;-40
2022/10/23 02:56:27;;;;;;;2.37;0.50;;;;;;;-144.22;100.00;60274.75;6214449;28;20731;-40
2022/10/23 02:59:43;;;;;;;2.20;0.83;;;;;;;-144.22;100.00;60274.75;6224477;28;20717;-39
2022/10/23 03:02:58;;;;;;;1.90;0.50;;;;;;;-144.22;100.00;60274.75;6228301;28;20234;-40
2022/10/23 03:06:03;;;;;;;1.67;0.50;;;;;;;-144.22;100.00;60274.75;6222363;28;20729;-39
2022/10/23 03:09:08;;;;;;;0.80;0.50;;;;;;;-144.22;100.00;60274.75;6228055;28;20215;-39
2022/10/23 03:12:10;;;;;;;2.07;0.67;;;;;;;-144.22;100.00;60274.75;6226204;28;20212;-39
2022/10/23 03:15:12;;;;;;;1.00;0.50;;;;;;;-144.22;100.00;60274.75;6228659;28;20341;-39
2022/10/23 03:18:14;;;;;;;1.43;0.60;;;;;;;-144.22;100.00;60274.75;6229814;28;20235;-39
2022/10/23 03:21:23;;;;;;;0.70;0.60;;;;;;;-144.22;100.00;60274.75;6226571;28;20230;-41
2022/10/23 03:24:27;;;;;;;2.63;1.27;;;;;;;-144.22;100.00;60274.75;6229161;28;20546;-41
2022/10/23 03:27:29;;;;;;;1.47;0.60;;;;;;;-144.22;100.00;60274.75;6221075;28;20231;-41
2022/10/23 03:30:34;;;;;;;1.10;0.70;;;;;;;-144.22;100.00;60274.75;6226952;28;20224;-39
2022/10/23 03:33:36;;;;;;;0.87;0.60;;;;;;;-144.22;100.00;60274.75;6228007;28;20227;-39
2022/10/23 03:36:44;;;;;;;1.83;0.60;;;;;;;-144.22;100.00;60274.75;6226415;28;20235;-39
2022/10/23 03:39:46;;;;;;;1.80;0.40;;;;;;;-144.22;100.00;60274.75;6225459;28;20302;-39
2022/10/23 03:42:48;;;;;;;0.67;0.60;;;;;;;-144.22;100.00;60274.75;6221994;28;20701;-39
2022/10/23 03:45:54;;;;;;;1.93;0.60;;;;;;;-144.22;100.00;60274.75;6223832;28;20370;-41
2022/10/23 03:48:59;;;;;;;1.10;0.60;;;;;;;-144.22;100.00;60274.75;6228971;28;20234;-42
2022/10/23 03:52:01;;;;;;;2.50;0.60;;;;;;;-144.22;100.00;60274.75;6209995;28;20264;-41
2022/10/23 03:55:04;;;;;;;0.50;0.50;;;;;;;-144.22;100.00;60274.75;6215381;28;20226;-41
2022/10/23 03:58:06;;;;;;;2.13;0.50;;;;;;;-144.22;100.00;60274.75;6230903;28;20237;-41
2022/10/23 04:01:08;;;;;;;0.70;0.60;;;;;;;-144.22;100.00;60274.75;6211270;28;20251;-42
2022/10/23 04:04:12;;;;;;;0.67;0.60;;;;;;;-144.22;100.00;60274.75;6226802;28;20276;-42
2022/10/23 04:07:16;;;;;;;2.20;0.60;;;;;;;-144.22;100.00;60274.75;6207576;28;20235;-41
2022/10/23 04:10:19;;;;;;;0.83;0.60;;;;;;;-144.22;100.00;60274.75;6209840;28;20764;-42
2022/10/23 04:13:21;;;;;;;1.60;0.80;;;;;;;-144.22;100.00;60274.75;6223269;28;20601;-42
2022/10/23 04:16:24;;;;;;;3.50;0.50;;;;;;;-144.22;100.00;60274.75;6208659;28;20706;-41
2022/10/23 04:19:33;;;;;;;0.77;0.60;;;;;;;-144.22;100.00;60274.75;6216891;28;20239;-41
2022/10/23 04:22:38;;;;;;;1.57;0.80;;;;;;;-144.22;100.00;60274.75;6237317;28;20645;-41
2022/10/23 04:25:40;;;;;;;4.80;1.50;;;;;;;-144.22;100.00;60274.75;6225935;28;20239;-42
2022/10/23 04:28:42;;;;;;;2.53;1.53;;;;;;;-144.22;100.00;60274.75;6228691;28;20309;-41
2022/10/23 04:31:44;;;;;;;2.23;1.20;;;;;;;-144.22;100.00;60274.75;6212967;28;20236;-42
2022/10/23 04:34:46;;;;;;;1.07;0.90;;;;;;;-144.22;100.00;60274.75;6222091;28;20699;-41
2022/10/23 04:37:49;;;;;;;1.57;0.97;;;;;;;-144.22;100.00;60274.75;6211892;28;20429;-41
2022/10/23 04:40:51;;;;;;;3.10;0.53;;;;;;;-144.22;100.00;60274.75;6218284;28;20244;-42
2022/10/23 04:43:56;;;;;;;1.83;0.67;;;;;;;-144.22;100.00;60274.75;6225061;28;20241;-41
2022/10/23 04:46:58;;;;;;;0.50;0.50;;;;;;;-144.22;100.00;60274.75;6229491;28;20651;-42
2022/10/23 04:50:01;;;;;;;3.00;0.50;;;;;;;-144.22;100.00;60274.75;6227174;28;20266;-42
2022/10/23 04:53:29;;;;;;;0.77;0.60;;;;;;;-144.22;100.00;60274.75;6218753;28;20765;-42
2022/10/23 04:56:58;;;;;;;1.20;0.63;;;;;;;-144.22;100.00;60274.75;6226192;28;20732;-41
2022/10/23 05:00:09;;;;;;;0.60;0.50;;;;;;;-144.22;100.00;60274.75;6213689;28;20272;-42
2022/10/23 05:03:19;;;;;;;1.50;0.73;;;;;;;-144.22;100.00;60274.75;6226467;28;20242;-42
2022/10/23 05:06:21;;;;;;;1.73;0.60;;;;;;;-144.22;100.00;60274.75;6216554;28;20287;-41
2022/10/23 05:09:42;;;;;;;2.00;0.50;;;;;;;-144.22;100.00;60274.75;6224564;28;20248;-41
2022/10/23 05:13:04;;;;;;;1.57;0.70;;;;;;;-144.22;100.00;60274.75;6213623;28;20233;-41
2022/10/23 05:16:07;;;;;;;1.03;0.63;;;;;;;-144.22;100.00;60274.75;6222800;28;20725;-41
2022/10/23 05:19:14;;;;;;;5.97;0.60;;;;;;;-144.22;100.00;60274.75;6206521;28;20327;-42
2022/10/23 05:22:18;;;;;;;1.17;0.70;;;;;;;-144.22;100.00;60274.75;6229425;28;20241;-41
2022/10/23 05:25:24;;;;;;;4.10;0.57;;;;;;;-144.22;100.00;60274.75;6225621;28;20354;-42
2022/10/23 05:28:36;;;;;;;1.80;0.70;;;;;;;-144.22;100.00;60274.75;6225514;28;20245;-42
2022/10/23 05:31:38;;;;;;;1.70;0.70;;;;;;;-144.22;100.00;60274.75;6217127;28;20271;-41
2022/10/23 05:34:45;;;;;;;1.07;0.40;;;;;;;-144.22;100.00;60274.75;6219018;28;20241;-42
2022/10/23 05:37:50;;;;;;;1.13;0.60;;;;;;;-144.22;100.00;60274.75;6222870;28;20262;-42
2022/10/23 05:40:57;;;;;;;3.03;0.60;;;;;;;-144.22;100.00;60274.75;6218050;28;20233;-42
2022/10/23 05:44:01;;;;;;;1.10;0.90;;;;;;;-144.22;100.00;60274.75;6231338;28;20340;-42
2022/10/23 05:47:32;;;;;;;1.43;0.83;;;;;;;-144.22;100.00;60274.75;6206683;28;20698;-41
2022/10/23 05:51:08;;;;;;;1.33;0.90;;;;;;;-144.22;100.00;60274.75;6239308;28;20217;-40
2022/10/23 05:54:20;;;;;;;3.17;0.90;;;;;;;-144.22;100.00;60274.75;6226458;28;22149;-41
2022/10/23 05:57:37;;;;;;;1.27;0.73;;;;;;;-144.22;100.00;60274.75;6240382;28;20283;-42
2022/10/23 06:00:42;;;;;;;2.27;0.90;;;;;;;-144.22;100.00;60274.75;6236668;28;20243;-41
2022/10/23 06:04:05;;;;;;;1.87;0.90;;;;;;;-144.22;100.00;60274.75;6263417;28;20231;-41
2022/10/23 06:07:39;;;;;;;2.83;1.00;;;;;;;-144.22;100.00;60274.75;6244663;28;21016;-41
2022/10/23 06:10:43;;;;;;;1.17;0.80;;;;;;;-144.22;100.00;60274.75;6239064;28;20720;-42
2022/10/23 06:13:47;;;;;;;1.83;0.83;;;;;;;-144.22;100.00;60274.75;6250998;28;20215;-41
2022/10/23 06:16:52;;;;;;;5.30;0.90;;;;;;;-144.22;100.00;60274.75;6252475;28;20241;-42
2022/10/23 06:20:01;;;;;;;1.97;0.87;;;;;;;-144.22;100.00;60274.75;6245733;28;20221;-41
2022/10/23 06:23:08;;;;;;;1.40;0.90;;;;;;;-144.22;100.00;60274.75;6253961;28;20325;-41
2022/10/23 06:26:28;;;;;;;3.33;1.37;;;;;;;-144.22;100.00;60274.75;6270573;28;20254;-41
2022/10/23 06:29:42;;;;;;;2.07;0.90;;;;;;;-144.22;100.00;60274.75;6255180;28;20247;-41
2022/10/23 06:32:44;;;;;;;0.80;0.80;;;;;;;-144.22;100.00;60274.75;6273581;28;20232;-41
2022/10/23 06:35:48;;;;;;;1.93;0.83;;;;;;;-144.22;100.00;60274.75;6273807;28;20631;-41
2022/10/23 06:38:51;;;;;;;1.30;0.97;;;;;;;-144.22;100.00;60274.75;6255788;28;20518;-41
2022/10/23 06:41:55;;;;;;;1.60;0.90;;;;;;;-144.22;100.00;60274.75;6261440;28;20232;-41
2022/10/23 06:45:35;;;;;;;1.63;0.73;;;;;;;-144.22;100.00;60274.75;6169076;28;20236;-41
2022/10/23 06:48:47;;;;;;;1.13;0.90;;;;;;;-144.22;100.00;60274.75;6171831;28;20298;-41
2022/10/23 06:51:55;;;;;;;1.33;0.80;;;;;;;-144.22;100.00;60274.75;6258861;28;20594;-41
2022/10/23 06:54:57;;;;;;;2.83;1.40;;;;;;;-144.22;100.00;60274.75;6250565;28;20322;-41
2022/10/23 06:58:09;;;;;;;1.53;1.17;;;;;;;-144.22;100.00;60274.75;6253686;28;20313;-41
2022/10/23 07:01:26;;;;;;;1.30;1.20;;;;;;;-144.22;100.00;60274.75;6270156;28;20266;-41
2022/10/23 07:04:29;;;;;;;3.77;1.93;;;;;;;-144.22;100.00;60274.75;6271645;28;20711;-42
2022/10/23 07:07:33;;;;;;;3.97;1.53;;;;;;;-144.22;100.00;60274.75;6274833;28;20234;-41
2022/10/23 07:10:36;;;;;;;2.70;1.50;;;;;;;-144.22;100.00;60274.75;6246213;28;20872;-41
2022/10/23 07:13:39;;;;;;;2.97;1.80;;;;;;;-144.22;100.00;60274.75;6255206;28;20233;-41
2022/10/23 07:16:50;;;;;;;2.70;1.53;;;;;;;-144.22;100.00;60274.75;6252876;28;20736;-41
2022/10/23 07:19:53;;;;;;;2.30;1.37;;;;;;;-144.22;100.00;60274.75;6251516;28;20247;-41
2022/10/23 07:22:55;;;;;;;3.17;1.70;;;;;;;-144.22;100.00;60274.75;6267938;28;20234;-41
2022/10/23 07:26:08;;;;;;;2.67;1.87;;;;;;;-144.22;100.00;60274.75;6253263;28;20238;-42
2022/10/23 07:29:11;;;;;;;1.50;1.40;;;;;;;-144.22;100.00;60274.75;6240506;28;20273;-41
2022/10/23 07:32:13;;;;;;;2.57;1.57;;;;;;;-144.22;100.00;60274.75;6243806;28;20223;-41
2022/10/23 07:35:41;;;;;;;1.87;1.63;;;;;;;-144.22;100.00;60274.75;6250511;28;20594;-41
2022/10/23 07:38:49;;;;;;;3.63;1.73;;;;;;;-144.22;100.00;60274.75;6238195;28;20231;-41
2022/10/23 07:41:51;;;;;;;3.13;1.73;;;;;;;-144.22;100.00;60274.75;6231754;28;20236;-41
2022/10/23 07:44:53;;;;;;;1.87;1.40;;;;;;;-144.22;100.00;60274.75;6238200;28;20591;-41
2022/10/23 07:47:56;;;;;;;3.20;1.57;;;;;;;-144.22;100.00;60274.75;6244497;28;20612;-41
2022/10/23 07:51:10;;;;;;;1.87;1.50;;;;;;;-144.22;100.00;60274.75;6241904;28;20302;-41
2022/10/23 07:54:22;;;;;;;2.17;1.73;;;;;;;-144.22;100.00;60274.75;6244314;28;20334;-41
2022/10/23 07:57:49;;;;;;;3.33;1.80;;;;;;;-144.22;100.00;60274.75;6241457;28;20733;-41
2022/10/23 08:01:15;;;;;;;2.97;1.57;;;;;;;-144.22;100.00;60274.75;6237176;28;20220;-41
2022/10/23 08:04:18;;;;;;;2.07;1.87;;;;;;;-144.22;100.00;60274.75;6249844;28;20258;-41
2022/10/23 08:07:32;;;;;;;1.83;1.70;;;;;;;-144.22;100.00;60274.75;6245406;28;20235;-40
2022/10/23 08:10:34;;;;;;;1.70;1.53;;;;;;;-144.22;100.00;60274.75;6239393;28;20376;-41
2022/10/23 08:13:36;;;;;;;2.23;1.70;;;;;;;-144.22;100.00;60274.75;6229021;28;20237;-41
2022/10/23 08:16:40;;;;;;;4.20;1.70;;;;;;;-144.22;100.00;60274.75;6238877;28;20237;-41
2022/10/23 08:19:48;;;;;;;2.23;1.83;;;;;;;188.01;100.00;60274.75;6240261;28;20234;-41
2022/10/23 08:22:52;;;;;;;2.20;2.00;;;;;;;-144.22;100.00;60274.75;6243091;28;20236;-41
2022/10/23 08:25:59;;;;;;;2.23;1.90;;;;;;;-144.22;100.00;60274.75;6240809;28;20360;-41
2022/10/23 08:29:04;;;;;;;1.70;1.60;;;;;;;11.77;100.00;60274.75;6261195;28;20298;-41
2022/10/23 08:32:06;;;;;;;1.93;1.37;;;;;;;12.30;100.00;60274.75;6251538;28;20314;-41
2022/10/23 08:35:26;;;;;;;2.13;1.77;;;;;;;12.65;100.00;60274.75;6268128;28;20254;-42
2022/10/23 08:38:28;;;;;;;1.83;1.40;;;;;;;-144.22;100.00;60274.75;6249708;28;20221;-41
2022/10/23 08:41:35;;;;;;;1.30;1.00;;;;;;;-144.22;100.00;60274.75;6250403;28;20658;-41
2022/10/23 08:44:52;;;;;;;1.37;1.10;;;;;;;13.96;100.00;60274.75;6267215;28;20283;-41
2022/10/23 08:48:03;;;;;;;2.80;1.30;;;;;;;-144.22;100.00;60274.75;6252653;28;20411;-41
2022/10/23 08:51:40;;;;;;;2.10;1.23;;;;;;;-144.22;100.00;60274.75;6235204;28;20218;-41
2022/10/23 08:54:56;;;;;;;1.40;1.10;;;;;;;-144.22;100.00;60274.75;6268333;28;20238;-43
2022/10/23 08:58:28;;;;;;;1.40;1.00;;;;;;;-144.22;100.00;60274.75;6252532;28;20259;-42
2022/10/23 09:01:41;;;;;;;2.00;1.33;;;;;;;-144.22;100.00;60274.75;6267235;28;20227;-41
2022/10/23 09:04:46;;;;;;;22.57;9.20;;;;;;;16.55;100.00;60274.75;6265270;28;20224;-42
2022/10/23 09:08:20;;;;;;;3.40;2.17;;;;;;;-144.22;100.00;60274.75;6244601;28;20607;-41
2022/10/23 09:11:43;;;;;;;1.50;1.40;;;;;;;188.01;100.00;60274.75;6266494;28;20234;-41
2022/10/23 09:15:22;;;;;;;1.20;1.07;;;;;;;-144.22;100.00;60274.75;6257714;28;20603;-41
2022/10/23 09:18:24;;;;;;;2.67;2.17;;;;;;;-144.22;100.00;60274.75;6261987;28;20607;-41
2022/10/23 09:21:29;;;;;;;2.00;1.40;;;;;;;-144.22;100.00;60274.75;6270755;28;20625;-43
2022/10/23 09:24:32;;;;;;;1.70;1.40;;;;;;;-144.22;100.00;60274.75;6272421;28;20702;-42
2022/10/23 09:27:34;;;;;;;1.47;1.20;;;;;;;-144.22;100.00;60274.75;6270884;28;20638;-42
2022/10/23 09:30:39;;;;;;;3.53;1.67;;;;;;;16.35;100.00;60274.75;6259630;28;20226;-43
2022/10/23 09:33:56;;;;;;;2.57;1.47;;;;;;;-144.22;100.00;60274.75;6261863;28;20685;-42
2022/10/23 09:37:02;;;;;;;1.80;1.50;;;;;;;-144.22;100.00;60274.75;6267803;28;20331;-42
2022/10/23 09:40:24;;;;;;;2.23;2.00;;;;;;;-144.22;100.00;60274.75;6255765;28;20976;-42
2022/10/23 09:43:26;;;;;;;4.23;1.83;;;;;;;16.36;100.00;60274.75;6262216;28;20246;-41
2022/10/23 09:46:43;;;;;;;3.03;1.80;;;;;;;-144.22;100.00;60274.75;6249697;28;20237;-41
2022/10/23 09:49:48;;;;;;;3.27;1.87;;;;;;;-144.22;100.00;60274.75;6267856;28;20321;-42
2022/10/23 09:52:54;;;;;;;2.87;2.33;;;;;;;-144.22;100.00;60274.75;6260641;28;20234;-42
2022/10/23 09:56:00;;;;;;;3.83;2.43;;;;;;;-144.22;100.00;60274.75;6271054;28;20241;-42
2022/10/23 09:59:11;;;;;;;2.90;2.07;;;;;;;-144.22;100.00;60274.75;6265758;28;20238;-41
2022/10/23 10:02:34;;;;;;;2.77;2.20;;;;;;;-144.22;100.00;60274.75;6266707;28;20740;-39
2022/10/23 10:06:01;;;;;;;5.03;2.90;;;;;;;-144.22;100.00;60274.75;6253210;28;20249;-40
2022/10/23 10:09:15;;;;;;;3.47;2.10;;;;;;;-144.22;100.00;60274.75;6268936;28;21361;-42
2022/10/23 10:12:36;;;;;;;2.50;2.10;;;;;;;-144.22;100.00;60274.75;6264321;28;20203;-40
2022/10/23 10:15:49;;;;;;;2.70;1.80;;;;;;;-144.22;100.00;60274.75;6263879;28;20314;-39
2022/10/23 10:19:03;;;;;;;2.90;2.10;;;;;;;-144.22;100.00;60274.75;6262114;28;20230;-40
2022/10/23 10:22:15;;;;;;;2.90;1.80;;;;;;;17.39;100.00;60274.75;6271102;28;20638;-40
2022/10/23 10:25:34;;;;;;;2.20;2.00;;;;;;;-144.22;100.00;60274.75;6269170;28;20599;-42
2022/10/23 10:28:51;;;;;;;4.10;2.60;;;;;;;-144.22;100.00;60274.75;6268422;28;20235;-40
2022/10/23 10:32:16;;;;;;;3.03;2.57;;;;;;;18.09;100.00;60274.75;6256695;28;20352;-40
2022/10/23 10:35:18;;;;;;;4.50;2.57;;;;;;;-144.22;100.00;60274.75;6270923;28;20218;-40
2022/10/23 10:38:41;;;;;;;2.63;2.07;;;;;;;-144.22;100.00;60274.75;6247709;28;20229;-39
2022/10/23 10:42:20;;;;;;;2.57;2.33;;;;;;;-144.22;100.00;60274.75;6271176;28;20235;-39
2022/10/23 10:45:25;;;;;;;3.17;2.60;;;;;;;17.57;100.00;60274.75;6254173;28;20732;-39
2022/10/23 10:48:40;;;;;;;2.73;2.20;;;;;;;-144.22;100.00;60274.75;6271742;28;20697;-40
2022/10/23 10:52:28;;;;;;;3.50;3.07;;;;;;;17.83;100.00;60274.75;6268679;28;20214;-41
2022/10/23 10:55:38;;;;;;;2.50;2.30;;;;;;;-144.22;100.00;60274.75;6271493;28;20637;-40
2022/10/23 10:58:50;;;;;;;2.80;2.57;;;;;;;18.46;100.00;60274.75;6263837;28;20234;-40
2022/10/23 11:02:03;;;;;;;2.87;2.57;;;;;;;-144.22;100.00;60274.75;6270908;28;20631;-40
2022/10/23 11:05:25;;;;;;;2.70;2.50;;;;;;;-144.22;100.00;60274.75;6266832;28;20226;-40
2022/10/23 11:08:40;;;;;;;3.00;2.70;;;;;;;17.74;100.00;60274.75;6269952;28;20226;-40
2022/10/23 11:11:59;;;;;;;2.80;2.60;;;;;;;-144.22;100.00;60274.75;6271865;28;20243;-40
2022/10/23 11:15:01;;;;;;;2.70;2.50;;;;;;;18.50;100.00;60274.75;6279290;28;20310;-40
2022/10/23 11:18:11;;;;;;;2.43;2.23;;;;;;;-144.22;100.00;60274.75;6275724;28;20327;-40
2022/10/23 11:21:42;;;;;;;4.03;3.40;;;;;;;-144.22;100.00;60274.75;6254739;28;20557;-40
2022/10/23 11:24:56;;;;;;;2.70;2.40;;;;;;;-144.22;100.00;60274.75;6255670;28;20685;-40
2022/10/23 11:28:21;;;;;;;2.80;2.60;;;;;;;18.90;100.00;60274.75;6252235;28;20235;-41
2022/10/23 11:32:01;;;;;;;2.70;2.50;;;;;;;-144.22;100.00;60274.75;6251950;28;20242;-40
2022/10/23 11:35:44;;;;;;;3.83;2.50;;;;;;;-144.22;100.00;60274.75;6271518;28;20235;-40
2022/10/23 11:38:58;;;;;;;3.10;2.80;;;;;;;18.94;100.00;60274.75;6271630;28;20589;-40
2022/10/23 11:42:04;;;;;;;2.83;2.63;;;;;;;-144.22;100.00;60274.75;6272988;28;20408;-40
2022/10/23 11:45:26;;;;;;;2.60;2.40;;;;;;;18.99;100.00;60274.75;6274754;28;20710;-40
2022/10/23 11:48:40;;;;;;;2.60;2.40;;;;;;;-144.22;100.00;60274.75;6268619;28;20230;-40
2022/10/23 11:51:42;;;;;;;2.50;2.30;;;;;;;-144.22;100.00;60274.75;6271230;28;20235;-40
2022/10/23 11:54:45;;;;;;;2.60;2.40;;;;;;;-144.22;100.00;60274.75;6251017;28;20230;-40
2022/10/23 11:58:06;;;;;;;2.53;2.27;;;;;;;18.77;100.00;60274.75;6266210;28;20628;-40
2022/10/23 12:01:26;;;;;;;4.13;2.53;;;;;;;-144.22;100.00;60274.75;6262277;28;20225;-40
2022/10/23 12:04:51;;;;;;;2.90;2.70;;;;;;;18.45;100.00;60274.75;6268790;28;20239;-42
2022/10/23 12:07:57;;;;;;;2.57;2.33;;;;;;;-144.22;100.00;60274.75;6271708;28;20760;-41
2022/10/23 12:10:59;;;;;;;3.30;3.00;;;;;;;-144.22;100.00;60274.75;6271987;28;20218;-40
2022/10/23 12:14:01;;;;;;;3.20;2.90;;;;;;;17.83;100.00;60274.75;6266318;28;20233;-40
2022/10/23 12:17:23;;;;;;;2.63;2.40;;;;;;;-144.22;100.00;60274.75;6263693;28;20234;-40
2022/10/23 12:20:37;;;;;;;2.77;2.40;;;;;;;19.15;100.00;60274.75;6268737;28;20226;-40
2022/10/23 12:23:56;;;;;;;2.60;2.40;;;;;;;-144.22;100.00;60274.75;6269209;28;20231;-41
2022/10/23 12:27:31;;;;;;;2.50;2.30;;;;;;;-144.22;100.00;60274.75;6268427;28;20234;-40
2022/10/23 12:31:02;;;;;;;2.87;2.50;;;;;;;19.18;100.00;60274.75;6246023;28;20832;-39
2022/10/23 12:34:17;;;;;;;2.17;1.93;;;;;;;-144.22;100.00;60274.75;6268650;28;20227;-40
2022/10/23 12:37:41;;;;;;;3.37;3.07;;;;;;;-144.22;100.00;60274.75;6262275;28;20235;-40
2022/10/23 12:40:49;;;;;;;2.90;2.70;;;;;;;-144.22;100.00;60274.75;6261807;28;20730;-40
2022/10/23 12:43:55;;;;;;;2.50;2.30;;;;;;;17.99;100.00;60274.75;6271890;28;20247;-41
2022/10/23 12:47:01;;;;;;;2.60;2.40;;;;;;;-144.22;100.00;60274.75;6264183;28;20710;-40
2022/10/23 12:50:19;;;;;;;2.93;2.63;;;;;;;18.34;100.00;60274.75;6266180;28;20377;-41
2022/10/23 12:53:23;;;;;;;2.73;2.53;;;;;;;-144.22;100.00;60274.75;6268674;28;20237;-40
2022/10/23 12:56:26;;;;;;;2.40;2.20;;;;;;;-144.22;100.00;60274.75;6254730;28;20223;-40
2022/10/23 12:59:37;;;;;;;2.60;2.40;;;;;;;18.71;100.00;60274.75;6280844;28;20738;-41
2022/10/23 13:02:40;;;;;;;2.57;2.37;;;;;;;-144.22;100.00;60274.75;6280381;28;20718;-40
2022/10/23 13:05:43;;;;;;;2.60;2.40;;;;;;;-144.22;100.00;60274.75;6278460;28;20317;-40
2022/10/23 13:08:47;;;;;;;1.73;1.63;;;;;;;18.50;100.00;60274.75;6278848;28;20739;-40
2022/10/23 13:12:23;;;;;;;2.23;2.03;;;;;;;-144.22;100.00;60274.75;6248419;28;20235;-40
2022/10/23 13:15:39;;;;;;;2.70;2.50;;;;;;;-144.22;100.00;60274.75;6261020;28;20233;-40
2022/10/23 13:18:41;;;;;;;2.30;2.13;;;;;;;-144.22;100.00;60274.75;6278801;28;20223;-40
2022/10/23 13:21:45;;;;;;;2.20;2.00;;;;;;;-144.22;100.00;60274.75;6279067;28;20273;-40
2022/10/23 13:24:47;;;;;;;2.60;2.40;;;;;;;-144.22;100.00;60274.75;6254219;28;20230;-40
2022/10/23 13:27:50;;;;;;;2.17;2.07;;;;;;;-144.22;100.00;60274.75;6279804;28;20639;-39
2022/10/23 13:31:26;;;;;;;2.93;2.67;;;;;;;18.96;100.00;60274.75;6278658;28;20650;-40
2022/10/23 13:34:29;;;;;;;2.87;2.60;;;;;;;-144.22;100.00;60274.75;6276027;28;20717;-39
2022/10/23 13:37:32;;;;;;;3.00;2.80;;;;;;;18.50;100.00;60274.75;6278514;28;20236;-40
2022/10/23 13:40:35;;;;;;;2.47;2.27;;;;;;;-144.22;100.00;60274.75;6278168;28;20230;-40
2022/10/23 13:43:38;;;;;;;2.80;2.43;;;;;;;-144.22;100.00;60274.75;6278174;28;20238;-40
2022/10/23 13:46:42;;;;;;;3.37;2.73;;;;;;;-144.22;100.00;60274.75;6278292;28;20238;-39
2022/10/23 13:49:44;;;;;;;2.40;2.20;;;;;;;-144.22;100.00;60274.75;6260820;28;20226;-39
2022/10/23 13:52:46;;;;;;;2.43;2.23;;;;;;;-144.22;100.00;60274.75;6278207;28;20311;-40
2022/10/23 13:55:51;;;;;;;2.17;2.03;;;;;;;-144.22;100.00;60274.75;6260553;28;20276;-40
2022/10/23 13:58:59;;;;;;;3.37;2.60;;;;;;;15.51;100.00;60274.75;6277743;28;20275;-40
2022/10/23 14:02:03;;;;;;;2.33;2.10;;;;;;;-144.22;100.00;60274.75;6277800;28;20588;-40
2022/10/23 14:05:07;;;;;;;3.23;2.00;;;;;;;-144.22;100.00;60274.75;6283287;28;20234;-39
2022/10/23 14:08:09;;;;;;;2.03;1.93;;;;;;;15.25;100.00;60274.75;6279124;28;20713;-40
2022/10/23 14:11:13;;;;;;;3.57;2.13;;;;;;;-144.22;100.00;60274.75;6278273;28;20261;-40
2022/10/23 14:14:20;;;;;;;1.97;1.77;;;;;;;-144.22;100.00;60274.75;6278844;28;20239;-39
2022/10/23 14:17:22;;;;;;;2.07;1.87;;;;;;;-144.22;100.00;60274.75;6277805;28;20408;-42
2022/10/23 14:20:25;;;;;;;2.30;2.10;;;;;;;-144.22;100.00;60274.75;6277018;28;20778;-39
2022/10/23 14:23:28;;;;;;;2.10;1.90;;;;;;;-144.22;100.00;60274.75;6278556;28;20230;-40
2022/10/23 14:26:31;;;;;;;1.97;1.70;;;;;;;-144.22;100.00;60274.75;6277356;28;20637;-41